Terminal Aerodrome Forecast
Issued by NWS

Home | Current Version | Previous Version | Text Only | Print | Product List | Glossary On
Versions: 1 2 3 4 5 6 7 8 9 10 11 12 13 14 15 16 17 18 19 20
000
FTUS43 KIND 290520
TAFBMG
TAF
KBMG 290520Z 2906/3006 00000KT P6SM VCTS BKN040 BKN120CB
     FM290700 00000KT 1 1/2SM BR BKN100
      TEMPO 2908/2912 1/2SM FG OVC007
     FM291300 24003KT 2SM BR BKN025
     FM291800 26005KT P6SM VCTS BKN050CB
      AMD LTD TO CLD VIS AND WIND TIL 291300=

USA.gov is the U.S. government's official web portal to all federal, state and local government web resources and services.